Mystic, Georgia
Current Conditions -  °F | °C
As of 2:55 AM on Saturday 20 Dec 2014 (Local Time) from KFZG Reporting Station
Light Rain Light Rain  
Wind Chill: 51°   Ceiling: 6500
Heat Index: 51°   Visibility: 7mi
Dew Point: 49°   Wind: 0mph
Humidity: 92%   Direction: NA
Pressure: 30.14"   Gusts: NA
Location:  31.62°N, 83.34°W
Report Text: KFZG 200755Z AUTO 00000KT 7SM -RA BKN065 OVC075 11/09 A3014 RMK AO2 T01060093
Loading
Personal Weather Stations






























Interactive Weather Map New forecast layout! Learn more

10-Day Weather Forecast

Advertisements
Track Severe Weather on mobile